Time;durP1;ratioP1;P1;durP2;ratioP2;P2;SDS_P1;SDS_P2;PMS_P1;PMS_P2;Temp;Humidity;BMP_temperature;BMP_pressure;BME280_temperature;BME280_humidity;BME280_pressure;Samples;Min_cycle;Max_cycle;Signal;HPM_P1;HPM_P2
2023/03/15 13:01:24;;;;;;;2.03;1.75;;;18.60;63.20;;;;;;5099774;27;1514060;-19
2023/03/15 13:03:55;;;;;;;2.38;1.50;;;18.60;63.60;;;;;;5131148;28;20123;-19
2023/03/15 13:06:31;;;;;;;2.10;1.63;;;18.60;63.50;;;;;;5131298;27;20382;-19
2023/03/15 13:08:57;;;;;;;1.90;1.58;;;18.70;63.40;;;;;;5131490;27;20031;-20
2023/03/15 13:11:35;;;;;;;1.73;1.63;;;18.70;63.10;;;;;;5131093;27;20027;-20
2023/03/15 13:14:31;;;;;;;2.22;1.50;;;18.70;63.00;;;;;;5131099;27;20096;-20
2023/03/15 13:17:25;;;;;;;2.35;1.85;;;18.70;62.90;;;;;;5130949;28;20470;-20
2023/03/15 13:20:10;;;;;;;2.42;1.67;;;18.70;63.00;;;;;;5130793;27;20034;-18
2023/03/15 13:23:17;;;;;;;1.40;1.30;;;18.70;63.00;;;;;;5131412;27;20012;-19
2023/03/15 13:26:01;;;;;;;4.97;1.60;;;18.70;62.40;;;;;;5130986;27;20034;-19
2023/03/15 13:28:46;;;;;;;1.60;1.35;;;18.70;62.80;;;;;;5131211;27;20019;-19
2023/03/15 13:31:18;;;;;;;2.85;1.40;;;18.70;62.50;;;;;;5131051;27;20470;-19
2023/03/15 13:33:56;;;;;;;1.42;1.33;;;18.70;62.60;;;;;;5131170;27;20046;-19
2023/03/15 13:36:27;;;;;;;2.67;1.40;;;18.70;62.60;;;;;;5130936;27;20031;-20
2023/03/15 13:38:56;;;;;;;2.28;1.38;;;18.70;62.60;;;;;;5130720;27;20030;-20
2023/03/15 13:41:28;;;;;;;1.55;1.45;;;18.70;62.40;;;;;;5131096;27;20420;-18
2023/03/15 13:43:57;;;;;;;4.88;1.63;;;18.70;62.40;;;;;;5130480;27;20023;-19
2023/03/15 13:46:29;;;;;;;1.60;1.50;;;18.70;62.40;;;;;;5130907;27;20096;-19
2023/03/15 13:48:56;;;;;;;1.50;1.30;;;18.70;62.20;;;;;;5130617;27;20026;-20
2023/03/15 13:51:30;;;;;;;1.92;1.38;;;18.70;62.10;;;;;;5130577;27;20020;-19
2023/03/15 13:54:04;;;;;;;1.45;1.35;;;18.70;62.20;;;;;;5130277;27;20077;-20
2023/03/15 13:56:33;;;;;;;1.20;1.08;;;18.70;62.10;;;;;;5130876;27;20019;-19
2023/03/15 13:59:01;;;;;;;1.83;1.40;;;18.70;62.00;;;;;;5130401;27;20024;-19
2023/03/15 14:01:34;;;;;;;1.33;1.23;;;18.70;62.00;;;;;;5130202;27;20043;-19
2023/03/15 14:04:13;;;;;;;1.45;1.35;;;18.70;61.90;;;;;;5130239;27;20038;-19
2023/03/15 14:06:40;;;;;;;1.55;1.25;;;18.70;62.20;;;;;;5130593;27;20094;-19
2023/03/15 14:09:16;;;;;;;1.65;1.20;;;18.70;62.20;;;;;;5130182;27;20020;-19
2023/03/15 14:11:43;;;;;;;1.88;1.35;;;18.70;62.10;;;;;;5121622;27;20092;-19
2023/03/15 14:14:24;;;;;;;1.45;1.20;;;18.60;62.00;;;;;;5116170;28;20063;-20
2023/03/15 14:16:50;;;;;;;1.08;0.98;;;18.70;61.80;;;;;;5116381;28;20020;-19
2023/03/15 14:19:25;;;;;;;2.13;1.52;;;18.70;61.90;;;;;;5116319;28;20070;-19
2023/03/15 14:21:56;;;;;;;1.67;1.20;;;18.60;61.80;;;;;;5116265;28;20016;-19
2023/03/15 14:24:31;;;;;;;1.63;1.13;;;18.60;61.70;;;;;;5116244;28;20031;-19
2023/03/15 14:27:00;;;;;;;1.20;1.10;;;18.60;61.60;;;;;;5116526;28;20100;-19
2023/03/15 14:29:31;;;;;;;1.30;1.20;;;18.60;61.50;;;;;;5116320;28;20027;-19
2023/03/15 14:32:23;;;;;;;1.30;1.20;;;18.70;61.60;;;;;;5116026;28;20024;-19
2023/03/15 14:34:49;;;;;;;3.63;1.45;;;18.60;61.20;;;;;;5107079;28;20027;-19
2023/03/15 14:37:30;;;;;;;1.27;1.17;;;18.60;61.50;;;;;;5115974;28;20016;-19
2023/03/15 14:40:19;;;;;;;1.77;1.17;;;18.60;61.40;;;;;;5115600;28;20091;-19
2023/03/15 14:42:47;;;;;;;1.75;1.10;;;18.60;61.40;;;;;;5115909;28;20494;-19
2023/03/15 14:45:14;;;;;;;1.17;1.08;;;18.60;61.80;;;;;;5115884;28;20035;-19
2023/03/15 14:47:47;;;;;;;2.97;1.52;;;18.60;61.80;;;;;;5115959;28;20031;-20
2023/03/15 14:50:17;;;;;;;1.20;1.10;;;18.60;61.90;;;;;;5115983;28;20381;-19
2023/03/15 14:52:44;;;;;;;1.30;1.20;;;18.60;62.10;;;;;;5116185;28;20020;-19
2023/03/15 14:55:17;;;;;;;1.20;1.10;;;18.60;62.00;;;;;;5115959;28;20016;-19
2023/03/15 14:57:43;;;;;;;1.05;0.98;;;18.60;62.10;;;;;;5115815;28;20579;-19
2023/03/15 15:00:17;;;;;;;1.23;1.13;;;18.60;62.40;;;;;;5113484;28;20058;-19
2023/03/15 15:02:49;;;;;;;1.30;1.20;;;18.60;62.50;;;;;;5115848;28;20088;-20
2023/03/15 15:05:25;;;;;;;1.20;1.10;;;18.60;62.50;;;;;;5115597;28;20055;-19
2023/03/15 15:07:56;;;;;;;1.65;1.15;;;18.60;62.40;;;;;;5115260;28;20497;-19
2023/03/15 15:10:24;;;;;;;1.58;1.42;;;18.60;62.50;;;;;;5116125;28;20032;-19
2023/03/15 15:12:50;;;;;;;1.33;1.20;;;18.60;62.20;;;;;;5115330;28;20057;-20
2023/03/15 15:15:21;;;;;;;1.23;1.13;;;18.60;61.90;;;;;;5115493;28;20024;-19
2023/03/15 15:17:47;;;;;;;3.22;1.30;;;18.60;61.80;;;;;;5115527;28;20019;-20
2023/03/15 15:20:14;;;;;;;2.65;1.30;;;18.60;61.50;;;;;;5113891;28;20028;-19
2023/03/15 15:22:44;;;;;;;1.52;1.38;;;18.60;61.40;;;;;;5112888;28;20069;-19
2023/03/15 15:25:13;;;;;;;1.27;1.17;;;18.60;61.20;;;;;;5115126;28;20023;-19
2023/03/15 15:27:40;;;;;;;1.63;1.20;;;18.60;61.00;;;;;;5114960;28;20121;-19
2023/03/15 15:30:09;;;;;;;1.23;1.10;;;18.60;60.90;;;;;;5114738;28;20115;-19
2023/03/15 15:32:35;;;;;;;1.27;1.17;;;18.50;60.90;;;;;;5115351;28;20095;-19
2023/03/15 15:35:01;;;;;;;1.40;1.30;;;18.50;60.90;;;;;;5115157;28;20020;-19
2023/03/15 15:37:27;;;;;;;2.40;1.23;;;18.50;60.80;;;;;;5114933;28;20546;-19
2023/03/15 15:39:53;;;;;;;1.92;1.45;;;18.50;60.80;;;;;;5114595;28;20027;-19
2023/03/15 15:42:19;;;;;;;2.72;1.13;;;18.50;60.70;;;;;;5114985;28;20050;-19
2023/03/15 15:44:45;;;;;;;3.63;1.40;;;18.50;60.80;;;;;;5114932;28;20051;-20
2023/03/15 15:47:12;;;;;;;2.20;1.13;;;18.50;60.80;;;;;;5114916;28;20145;-19
2023/03/15 15:49:38;;;;;;;1.27;1.17;;;18.40;60.80;;;;;;5114577;28;20020;-19
2023/03/15 15:52:04;;;;;;;1.55;1.25;;;18.50;60.70;;;;;;5112985;28;20032;-19
2023/03/15 15:54:30;;;;;;;1.17;1.05;;;18.50;60.60;;;;;;5114605;28;20102;-19
2023/03/15 15:56:58;;;;;;;1.20;1.10;;;18.40;60.50;;;;;;5114563;28;20103;-19
2023/03/15 15:59:24;;;;;;;1.02;0.93;;;18.50;60.30;;;;;;5114457;28;20043;-19
2023/03/15 16:01:52;;;;;;;1.48;1.25;;;18.40;60.20;;;;;;5113970;28;20069;-20
2023/03/15 16:04:18;;;;;;;1.30;1.20;;;18.40;60.30;;;;;;5114631;28;20035;-19
2023/03/15 16:06:54;;;;;;;1.48;1.00;;;18.40;60.30;;;;;;5112937;28;20027;-19
2023/03/15 16:09:21;;;;;;;1.58;1.10;;;18.40;60.20;;;;;;5114245;28;20073;-19
2023/03/15 16:11:48;;;;;;;3.75;1.15;;;18.40;60.20;;;;;;5114552;28;20030;-18
2023/03/15 16:14:15;;;;;;;0.95;0.90;;;18.40;60.20;;;;;;5114313;28;20027;-19
2023/03/15 16:16:42;;;;;;;0.90;0.90;;;18.40;60.30;;;;;;5114395;27;20031;-20
2023/03/15 16:19:08;;;;;;;1.10;0.90;;;18.40;60.40;;;;;;5113955;28;20024;-19
2023/03/15 16:21:46;;;;;;;1.17;1.08;;;18.40;60.40;;;;;;5114115;28;20034;-19
2023/03/15 16:24:15;;;;;;;1.92;1.00;;;18.40;60.70;;;;;;5114122;28;20439;-19
2023/03/15 16:26:42;;;;;;;1.73;1.30;;;18.30;60.60;;;;;;5113875;28;20405;-19
2023/03/15 16:29:36;;;;;;;0.95;0.95;;;18.40;60.60;;;;;;5113190;28;20027;-19
2023/03/15 16:32:03;;;;;;;3.22;1.30;;;18.40;60.20;;;;;;5113639;28;20023;-19
2023/03/15 16:34:33;;;;;;;1.20;1.05;;;18.40;60.30;;;;;;5113628;28;20035;-19
2023/03/15 16:37:00;;;;;;;1.75;1.17;;;18.30;60.20;;;;;;5113806;28;20062;-19
2023/03/15 16:39:28;;;;;;;1.77;1.10;;;18.30;60.30;;;;;;5113959;28;20069;-19
2023/03/15 16:41:54;;;;;;;7.68;1.23;;;18.30;60.50;;;;;;5113471;28;20023;-19
2023/03/15 16:44:20;;;;;;;1.05;0.95;;;18.30;60.50;;;;;;5113965;28;20031;-20
2023/03/15 16:46:47;;;;;;;1.35;1.08;;;18.30;60.60;;;;;;5113894;28;20036;-19
2023/03/15 16:49:14;;;;;;;1.52;1.20;;;18.30;60.70;;;;;;5113605;28;20149;-19
2023/03/15 16:51:44;;;;;;;1.40;1.30;;;18.30;60.70;;;;;;5113859;28;20096;-20
2023/03/15 16:54:11;;;;;;;2.63;1.05;;;18.30;60.80;;;;;;5112092;28;20035;-19
2023/03/15 16:56:37;;;;;;;3.55;1.13;;;18.30;60.90;;;;;;5113541;28;20470;-18
2023/03/15 16:59:03;;;;;;;1.00;0.90;;;18.30;60.90;;;;;;5113383;28;20027;-20
2023/03/15 17:01:33;;;;;;;1.83;1.08;;;18.30;60.80;;;;;;5113410;28;20448;-19
2023/03/15 17:04:02;;;;;;;3.03;1.70;;;18.30;60.80;;;;;;5113332;28;20463;-20
2023/03/15 17:06:30;;;;;;;3.40;1.45;;;18.30;60.80;;;;;;5113723;28;20098;-19
2023/03/15 17:09:11;;;;;;;1.58;1.30;;;18.20;61.00;;;;;;5113334;28;20031;-19
2023/03/15 17:11:40;;;;;;;1.13;0.98;;;18.20;61.20;;;;;;5113423;28;20433;-19
2023/03/15 17:14:11;;;;;;;3.17;1.20;;;18.20;61.40;;;;;;5113111;28;20031;-19
2023/03/15 17:16:37;;;;;;;1.40;1.17;;;18.20;61.60;;;;;;5113683;28;20019;-19
2023/03/15 17:19:03;;;;;;;3.78;1.30;;;18.20;61.80;;;;;;5113220;28;20035;-19
2023/03/15 17:21:32;;;;;;;2.70;1.48;;;18.20;61.80;;;;;;5113312;28;20072;-19
2023/03/15 17:23:58;;;;;;;2.80;1.30;;;18.20;61.80;;;;;;5113055;28;20486;-19
2023/03/15 17:26:24;;;;;;;3.95;1.52;;;18.30;62.00;;;;;;5113195;28;20041;-19
2023/03/15 17:28:50;;;;;;;3.92;1.30;;;18.20;62.20;;;;;;5111901;28;20103;-18
2023/03/15 17:31:19;;;;;;;5.25;1.67;;;18.20;62.40;;;;;;5113151;28;20428;-19
2023/03/15 17:33:45;;;;;;;2.25;1.10;;;18.20;62.50;;;;;;5113335;28;20030;-18
2023/03/15 17:36:12;;;;;;;2.38;1.50;;;18.20;62.70;;;;;;5112970;28;20019;-19
2023/03/15 17:38:42;;;;;;;5.47;1.52;;;18.20;62.80;;;;;;5113697;28;20497;-19
2023/03/15 17:41:42;;;;;;;3.97;1.58;;;18.20;62.90;;;;;;5113067;28;20081;-19
2023/03/15 17:44:09;;;;;;;3.50;1.67;;;18.20;63.00;;;;;;5112139;28;20169;-18
2023/03/15 17:46:35;;;;;;;3.70;1.65;;;18.20;63.10;;;;;;5114569;28;20430;-19
2023/03/15 17:49:02;;;;;;;3.53;1.20;;;18.20;63.20;;;;;;5115600;28;20062;-19
2023/03/15 17:51:32;;;;;;;2.38;1.30;;;18.20;63.30;;;;;;5117222;28;20023;-19
2023/03/15 17:53:59;;;;;;;3.95;1.85;;;18.20;63.40;;;;;;5116664;28;20494;-18
2023/03/15 17:56:26;;;;;;;4.18;2.33;;;18.20;63.30;;;;;;5117375;28;20118;-19
2023/03/15 17:58:52;;;;;;;4.30;3.03;;;18.20;62.90;;;;;;5117305;28;20102;-18
2023/03/15 18:01:26;;;;;;;3.75;2.50;;;18.20;62.70;;;;;;5116515;27;20044;-19
2023/03/15 18:03:53;;;;;;;4.43;2.30;;;18.20;62.60;;;;;;5116524;28;20035;-19
2023/03/15 18:06:20;;;;;;;4.15;2.25;;;18.20;62.40;;;;;;5116945;28;20019;-19
2023/03/15 18:08:47;;;;;;;3.70;2.15;;;18.20;62.30;;;;;;5116554;28;20036;-19
2023/03/15 18:11:34;;;;;;;4.13;2.45;;;18.10;62.20;;;;;;5116841;28;20016;-19
2023/03/15 18:14:03;;;;;;;5.30;2.60;;;18.20;62.10;;;;;;5116201;28;20059;-19
2023/03/15 18:16:30;;;;;;;4.43;2.67;;;18.20;62.20;;;;;;5116413;28;20024;-19
2023/03/15 18:18:57;;;;;;;5.53;2.47;;;18.10;62.30;;;;;;5116487;28;20020;-19
2023/03/15 18:21:26;;;;;;;5.15;2.33;;;18.10;62.70;;;;;;5116610;28;20432;-19
2023/03/15 18:23:52;;;;;;;5.88;2.53;;;18.10;63.00;;;;;;5116033;28;20479;-19
2023/03/15 18:26:19;;;;;;;5.70;2.47;;;18.10;63.10;;;;;;5116298;28;20093;-19
2023/03/15 18:28:47;;;;;;;4.72;2.60;;;18.10;63.30;;;;;;5115020;28;20024;-19
2023/03/15 18:31:22;;;;;;;5.20;2.47;;;18.10;63.60;;;;;;5116079;28;20031;-18
2023/03/15 18:33:50;;;;;;;3.08;2.13;;;18.10;63.70;;;;;;5116100;28;20063;-20
2023/03/15 18:36:17;;;;;;;7.53;2.80;;;18.10;63.80;;;;;;5115153;28;20034;-19
2023/03/15 18:38:43;;;;;;;4.18;2.33;;;18.10;64.00;;;;;;5116319;28;20043;-18
2023/03/15 18:41:23;;;;;;;4.63;2.33;;;18.10;64.20;;;;;;5115830;28;20089;-18
2023/03/15 18:43:50;;;;;;;5.80;2.13;;;18.10;64.20;;;;;;5115722;28;20116;-20
2023/03/15 18:46:17;;;;;;;5.32;2.30;;;18.00;64.20;;;;;;5116186;28;20023;-19
2023/03/15 18:48:44;;;;;;;5.75;2.65;;;18.00;64.30;;;;;;5115879;28;20024;-19
2023/03/15 18:51:14;;;;;;;4.13;2.53;;;18.10;64.30;;;;;;5115827;28;20024;-19
2023/03/15 18:53:43;;;;;;;3.83;2.20;;;18.00;64.40;;;;;;5115857;28;20028;-20
2023/03/15 18:56:21;;;;;;;5.10;2.10;;;18.00;64.40;;;;;;5115497;28;20028;-19
2023/03/15 18:58:49;;;;;;;3.47;2.13;;;18.10;64.50;;;;;;5115403;28;20051;-19
2023/03/15 19:01:16;;;;;;;4.55;2.15;;;18.00;64.60;;;;;;5115322;28;20410;-20
2023/03/15 19:03:42;;;;;;;6.88;2.28;;;18.00;64.60;;;;;;5114680;28;20107;-19
2023/03/15 19:06:10;;;;;;;5.15;2.35;;;18.00;64.70;;;;;;5115504;28;20102;-19
2023/03/15 19:08:37;;;;;;;5.05;2.50;;;18.00;64.80;;;;;;5115684;28;20024;-19
2023/03/15 19:11:04;;;;;;;5.15;2.45;;;18.00;64.80;;;;;;5115703;28;20042;-19
2023/03/15 19:13:31;;;;;;;5.30;2.40;;;18.00;64.80;;;;;;5115517;28;20035;-19
2023/03/15 19:15:57;;;;;;;6.43;2.67;;;18.00;64.80;;;;;;5115088;28;20027;-19
2023/03/15 19:18:23;;;;;;;5.53;2.08;;;18.00;64.90;;;;;;5115502;28;20131;-19
2023/03/15 19:20:51;;;;;;;3.35;2.17;;;18.00;64.90;;;;;;5115374;28;20035;-19
2023/03/15 19:23:18;;;;;;;3.33;2.10;;;18.00;65.00;;;;;;5115559;28;20065;-19
2023/03/15 19:25:44;;;;;;;5.22;2.08;;;18.00;65.00;;;;;;5115308;27;20024;-19
2023/03/15 19:28:11;;;;;;;3.88;2.33;;;18.00;65.00;;;;;;5115162;28;20031;-19
2023/03/15 19:30:37;;;;;;;4.40;2.28;;;18.00;65.00;;;;;;5114922;28;20031;-19
2023/03/15 19:33:03;;;;;;;5.40;2.40;;;18.00;65.10;;;;;;5113707;28;20118;-19
2023/03/15 19:35:29;;;;;;;4.53;2.67;;;18.00;65.00;;;;;;5115200;28;20023;-19
2023/03/15 19:37:55;;;;;;;3.40;2.15;;;18.00;65.00;;;;;;5114621;28;20119;-19
2023/03/15 19:40:22;;;;;;;4.80;2.20;;;18.00;64.90;;;;;;5114768;28;20039;-19
2023/03/15 19:42:48;;;;;;;4.75;1.88;;;17.90;65.00;;;;;;5115437;28;20020;-19
2023/03/15 19:45:15;;;;;;;4.07;2.10;;;17.90;65.00;;;;;;5114824;28;20024;-20
2023/03/15 19:47:40;;;;;;;4.30;2.08;;;18.00;65.00;;;;;;5114748;28;20024;-19
2023/03/15 19:50:07;;;;;;;5.53;2.58;;;17.90;65.00;;;;;;5114702;27;20034;-19
2023/03/15 19:52:33;;;;;;;4.75;2.35;;;17.90;65.10;;;;;;5114930;28;20024;-19
2023/03/15 19:55:03;;;;;;;4.57;2.03;;;17.90;65.10;;;;;;5114533;28;20028;-20
2023/03/15 19:57:29;;;;;;;4.20;2.33;;;17.90;65.10;;;;;;5114844;28;20027;-19
2023/03/15 19:59:54;;;;;;;4.25;2.25;;;17.90;65.20;;;;;;5113861;28;20114;-19
2023/03/15 20:02:20;;;;;;;3.55;2.13;;;17.90;65.20;;;;;;5114403;28;20419;-20
2023/03/15 20:04:46;;;;;;;3.88;2.10;;;17.90;65.20;;;;;;5115147;28;20024;-20
2023/03/15 20:07:12;;;;;;;4.03;2.10;;;17.90;65.10;;;;;;5114721;28;20379;-19
2023/03/15 20:09:40;;;;;;;3.65;2.10;;;17.90;65.20;;;;;;5113676;28;20072;-20
2023/03/15 20:12:08;;;;;;;2.47;2.13;;;17.90;65.20;;;;;;5114303;28;20027;-19
2023/03/15 20:14:34;;;;;;;5.85;2.60;;;17.90;65.20;;;;;;5114326;28;20065;-20
2023/03/15 20:17:00;;;;;;;7.22;2.47;;;17.90;65.20;;;;;;5114179;28;20495;-20
2023/03/15 20:19:26;;;;;;;3.42;1.98;;;17.90;65.30;;;;;;5114326;28;20032;-20
2023/03/15 20:21:52;;;;;;;4.03;2.13;;;17.90;65.30;;;;;;5113817;28;20399;-19
2023/03/15 20:24:18;;;;;;;3.97;2.38;;;17.90;65.30;;;;;;5114063;28;20026;-20
2023/03/15 20:26:44;;;;;;;5.85;2.20;;;17.90;65.30;;;;;;5114525;28;20032;-19
2023/03/15 20:29:10;;;;;;;5.45;2.47;;;17.90;65.30;;;;;;5113861;28;20059;-20
2023/03/15 20:31:36;;;;;;;4.80;2.30;;;17.90;65.30;;;;;;5113929;28;20118;-20
2023/03/15 20:34:04;;;;;;;4.03;2.20;;;17.90;65.40;;;;;;5113748;28;20028;-20
2023/03/15 20:36:31;;;;;;;3.67;2.00;;;17.90;65.40;;;;;;5114143;28;20027;-19
2023/03/15 20:38:57;;;;;;;5.13;2.20;;;17.90;65.40;;;;;;5113798;28;20028;-19
2023/03/15 20:41:23;;;;;;;3.03;1.98;;;17.90;65.40;;;;;;5113637;28;20032;-20
2023/03/15 20:43:49;;;;;;;4.10;2.10;;;17.90;65.40;;;;;;5113481;28;20026;-20
2023/03/15 20:46:17;;;;;;;3.35;2.15;;;17.90;65.40;;;;;;5112837;28;20371;-19
2023/03/15 20:48:43;;;;;;;6.45;2.28;;;17.90;65.40;;;;;;5113728;28;20061;-20
2023/03/15 20:51:10;;;;;;;2.97;1.85;;;17.90;65.40;;;;;;5113616;28;20050;-20
2023/03/15 20:53:36;;;;;;;3.00;1.90;;;17.90;65.40;;;;;;5113614;28;20032;-19
2023/03/15 20:56:03;;;;;;;3.58;2.25;;;17.90;65.50;;;;;;5113645;28;20050;-19
2023/03/15 20:58:32;;;;;;;5.45;2.40;;;17.90;65.40;;;;;;5113576;28;20036;-20
2023/03/15 21:01:04;;;;;;;3.40;2.22;;;17.90;65.30;;;;;;5113153;28;20044;-20
2023/03/15 21:03:32;;;;;;;3.88;2.10;;;17.90;65.40;;;;;;5113319;28;20053;-20
2023/03/15 21:05:59;;;;;;;4.28;2.25;;;17.90;65.40;;;;;;5113087;28;20417;-18
2023/03/15 21:08:25;;;;;;;2.33;2.10;;;17.90;65.40;;;;;;5113565;28;20102;-19
2023/03/15 21:10:52;;;;;;;4.25;2.70;;;17.90;65.20;;;;;;5113285;28;20169;-20
2023/03/15 21:13:18;;;;;;;4.85;2.42;;;17.90;64.90;;;;;;5113762;28;20042;-19
2023/03/15 21:15:44;;;;;;;5.63;2.08;;;17.90;64.80;;;;;;5113232;28;20465;-19
2023/03/15 21:18:12;;;;;;;4.18;2.10;;;17.90;65.00;;;;;;5113557;28;20039;-19
2023/03/15 21:20:38;;;;;;;2.15;1.80;;;17.90;65.10;;;;;;5113524;28;20464;-19
2023/03/15 21:23:04;;;;;;;4.28;2.00;;;17.90;65.10;;;;;;5117603;28;20534;-19
2023/03/15 21:25:31;;;;;;;4.97;1.90;;;17.90;65.20;;;;;;5117631;28;20429;-19
2023/03/15 21:27:57;;;;;;;3.33;1.77;;;17.90;65.20;;;;;;5116000;28;20016;-19
2023/03/15 21:30:23;;;;;;;4.13;2.05;;;17.90;65.20;;;;;;5117220;28;20024;-19
2023/03/15 21:32:51;;;;;;;3.15;2.08;;;17.90;65.20;;;;;;5117647;28;20498;-19
2023/03/15 21:35:17;;;;;;;5.38;2.10;;;17.90;65.20;;;;;;5117618;28;20111;-19
2023/03/15 21:37:44;;;;;;;3.85;2.20;;;17.90;65.20;;;;;;5117480;28;20019;-18
2023/03/15 21:40:11;;;;;;;3.40;2.05;;;17.90;65.30;;;;;;5117112;28;20497;-20
2023/03/15 21:42:38;;;;;;;5.50;2.05;;;17.90;65.30;;;;;;5117051;28;20068;-19
2023/03/15 21:45:05;;;;;;;3.65;2.13;;;17.90;65.30;;;;;;5117263;28;20019;-18
2023/03/15 21:47:31;;;;;;;3.67;2.00;;;17.90;65.30;;;;;;5117053;28;20529;-18
2023/03/15 21:49:58;;;;;;;4.15;2.20;;;17.90;65.30;;;;;;5116753;28;20059;-17
2023/03/15 21:52:25;;;;;;;3.58;2.20;;;17.90;65.40;;;;;;5117248;28;20020;-19
2023/03/15 21:54:53;;;;;;;4.57;2.20;;;17.90;65.40;;;;;;5117132;28;20020;-18
2023/03/15 21:57:22;;;;;;;2.72;1.98;;;17.90;65.40;;;;;;5117002;28;20102;-19
2023/03/15 21:59:49;;;;;;;2.33;1.83;;;17.90;65.40;;;;;;5116212;28;20027;-19
2023/03/15 22:02:15;;;;;;;3.47;2.45;;;17.90;65.40;;;;;;5115649;28;20032;-19
2023/03/15 22:04:42;;;;;;;3.97;1.92;;;17.90;65.40;;;;;;5117032;28;20020;-20
2023/03/15 22:07:09;;;;;;;3.00;2.00;;;17.90;65.40;;;;;;5116902;28;20110;-19
2023/03/15 22:09:36;;;;;;;3.53;2.13;;;17.90;65.40;;;;;;5116618;27;20478;-19
2023/03/15 22:12:04;;;;;;;3.50;2.13;;;17.90;65.40;;;;;;5116271;27;20105;-20
2023/03/15 22:14:30;;;;;;;5.18;2.38;;;17.90;65.30;;;;;;5116943;28;20433;-19
2023/03/15 22:16:56;;;;;;;3.78;2.20;;;17.90;65.30;;;;;;5116679;28;20023;-18
2023/03/15 22:19:22;;;;;;;2.58;2.10;;;17.80;65.30;;;;;;5116335;28;20024;-19
2023/03/15 22:21:48;;;;;;;4.97;2.30;;;17.90;65.30;;;;;;5116354;28;20024;-19
2023/03/15 22:24:15;;;;;;;4.07;2.00;;;17.90;65.30;;;;;;5116650;28;20035;-19
2023/03/15 22:26:44;;;;;;;3.75;2.20;;;17.90;65.30;;;;;;5116565;28;20032;-19
2023/03/15 22:29:10;;;;;;;3.63;2.10;;;17.80;65.40;;;;;;5116506;27;20058;-18
2023/03/15 22:31:39;;;;;;;2.60;2.20;;;17.80;65.40;;;;;;5115806;28;20024;-18
2023/03/15 22:34:05;;;;;;;3.13;2.10;;;17.90;65.40;;;;;;5115890;28;20031;-19
2023/03/15 22:36:32;;;;;;;3.72;2.17;;;17.80;65.50;;;;;;5116390;28;20479;-19
2023/03/15 22:38:59;;;;;;;2.85;2.10;;;17.80;65.50;;;;;;5116168;28;20043;-18
2023/03/15 22:41:26;;;;;;;3.90;1.90;;;17.80;65.50;;;;;;5115873;28;20482;-19
2023/03/15 22:43:52;;;;;;;3.80;2.13;;;17.80;65.40;;;;;;5115753;28;20024;-19
2023/03/15 22:46:18;;;;;;;3.60;2.40;;;17.90;65.40;;;;;;5115766;28;20374;-19
2023/03/15 22:48:44;;;;;;;4.72;2.42;;;17.80;65.40;;;;;;5115703;28;20024;-18
2023/03/15 22:51:14;;;;;;;4.28;2.53;;;17.80;65.40;;;;;;5114513;28;20449;-19
2023/03/15 22:53:40;;;;;;;3.00;2.10;;;17.80;65.40;;;;;;5115726;28;20015;-19
2023/03/15 22:56:06;;;;;;;2.35;1.95;;;17.80;65.40;;;;;;5115446;28;20038;-19
2023/03/15 22:58:32;;;;;;;3.05;2.13;;;17.80;65.50;;;;;;5115917;28;20073;-19
2023/03/15 23:00:58;;;;;;;4.30;2.03;;;17.80;65.50;;;;;;5115316;28;20055;-19
2023/03/15 23:03:25;;;;;;;4.85;2.17;;;17.80;65.50;;;;;;5115863;28;20106;-18
2023/03/15 23:05:52;;;;;;;4.28;2.10;;;17.80;65.50;;;;;;5115600;28;20028;-19
2023/03/15 23:08:18;;;;;;;3.15;2.05;;;17.80;65.50;;;;;;5115766;28;20032;-18
2023/03/15 23:10:44;;;;;;;3.80;2.28;;;17.80;65.50;;;;;;5115663;28;20031;-19
2023/03/15 23:13:10;;;;;;;3.30;2.20;;;17.80;65.50;;;;;;5115347;28;20092;-20
2023/03/15 23:15:36;;;;;;;2.53;2.13;;;17.80;65.50;;;;;;5115542;28;20020;-20
2023/03/15 23:18:04;;;;;;;3.42;2.17;;;17.80;65.60;;;;;;5115141;28;20023;-18
2023/03/15 23:20:31;;;;;;;3.13;2.10;;;17.80;65.50;;;;;;5115087;28;20395;-19
2023/03/15 23:22:57;;;;;;;4.30;1.98;;;17.80;65.50;;;;;;5115397;28;20031;-19
2023/03/15 23:25:27;;;;;;;3.42;2.30;;;17.80;65.60;;;;;;5115131;28;20069;-18
2023/03/15 23:27:54;;;;;;;3.20;2.20;;;17.80;65.60;;;;;;5114818;28;20532;-19
2023/03/15 23:30:20;;;;;;;3.10;2.35;;;17.70;65.50;;;;;;5114935;28;20020;-19
2023/03/15 23:32:48;;;;;;;4.40;2.13;;;17.80;65.50;;;;;;5114996;28;20020;-19
2023/03/15 23:35:14;;;;;;;5.13;2.45;;;17.70;65.50;;;;;;5113669;28;20479;-19
2023/03/15 23:37:41;;;;;;;4.25;1.92;;;17.70;65.50;;;;;;5115166;28;20024;-19
2023/03/15 23:40:13;;;;;;;3.40;2.20;;;17.70;65.50;;;;;;5114518;28;20127;-19
2023/03/15 23:42:39;;;;;;;3.65;2.30;;;17.80;65.50;;;;;;5115115;28;20059;-19
2023/03/15 23:45:05;;;;;;;3.63;2.13;;;17.70;65.50;;;;;;5112522;28;20082;-19
2023/03/15 23:47:31;;;;;;;3.35;2.20;;;17.70;65.50;;;;;;5114765;28;20433;-19
2023/03/15 23:49:57;;;;;;;4.00;2.50;;;17.70;65.50;;;;;;5114375;28;20475;-19
2023/03/15 23:52:23;;;;;;;4.80;2.08;;;17.70;65.50;;;;;;5114625;28;20076;-19
2023/03/15 23:54:49;;;;;;;2.47;1.90;;;17.70;65.50;;;;;;5114452;28;20030;-19
2023/03/15 23:57:16;;;;;;;5.43;2.33;;;17.70;65.40;;;;;;5114504;28;20019;-19
2023/03/15 23:59:42;;;;;;;5.32;2.35;;;17.70;65.40;;;;;;5114567;28;20039;-19
